Barnes, Illinois
Current Conditions -  °F | °C
As of 8:56 AM on Wednesday 22 Oct 2014 (Local Time) from KBMI Reporting Station
Clear Clear  
Wind Chill: 44°   Ceiling: Unl
Heat Index: 44°   Visibility: 10mi
Dew Point: 40°   Wind: 0mph
Humidity: 86%   Direction: NA
Pressure: 30.36"   Gusts: NA
Location:  40.4766°N, 88.992°W
Report Text: KBMI 221356Z 00000KT 10SM CLR 07/04 A3036 RMK AO2 T00660044 SLP288
Loading
Personal Weather Stations






























Interactive Weather Map
Tropical Storm Tracking
New forecast layout! Learn more

10-Day Weather Forecast

Advertisements
Track Severe Weather on mobile